| time (UTC) | temp F | wind direction | speed knots | gust knots | rain 1hr in | rain 24hr in | rain mn in | humidity % | barometer mb |
| 20260505130103 | 56 | 0 | 0.0 | 2.6 | 0.00 | 0.00 | 0.00 | 80 | 1017.8 |
| 20260505124559 | 54 | 0 | 0.0 | 0.9 | 0.00 | 0.00 | 0.00 | 87 | 1017.6 |
| 20260505123101 | 51 | 0 | 0.0 | 0.9 | 0.00 | 0.00 | 0.00 | 92 | 1017.7 |
| 20260505121623 | 48 | 0 | 0.0 | 0.0 | 0.00 | 0.00 | 0.00 | 93 | 1017.6 |
| 20260505120055 | 47 | 0 | 0.0 | 0.9 | 0.00 | 0.00 | 0.00 | 93 | 1017.4 |
| 20260505114557 | 45 | 0 | 0.0 | 0.9 | 0.00 | 0.00 | 0.00 | 93 | 1017.4 |
| 20260505113103 | 45 | 0 | 0.0 | 0.0 | 0.00 | 0.00 | 0.00 | 93 | 1017.2 |
| 20260505111601 | 45 | 0 | 0.0 | 0.0 | 0.00 | 0.00 | 0.00 | 93 | 1017.1 |
| 20260505101600 | 45 | 0 | 0.0 | 0.0 | 0.00 | 0.00 | 0.00 | 93 | 1016.8 |
| 20260505100137 | 45 | 0 | 0.0 | 1.7 | 0.00 | 0.00 | 0.00 | 92 | 1016.8 |
| 20260505094556 | 46 | 0 | 0.0 | 0.0 | 0.00 | 0.00 | 0.00 | 93 | 1016.5 |
| 20260505093056 | 46 | 0 | 0.0 | 0.9 | 0.00 | 0.00 | 0.00 | 93 | 1016.5 |
| 20260505091616 | 46 | 0 | 0.0 | 0.0 | 0.00 | 0.00 | 0.00 | 92 | 1016.6 |
| 20260505084600 | 46 | 0 | 0.0 | 0.9 | 0.00 | 0.00 | 0.00 | 92 | 1016.3 |
| 20260505083056 | 46 | 0 | 0.0 | 0.0 | 0.00 | 0.00 | 0.00 | 92 | 1016.2 |
| 20260505081557 | 46 | 0 | 0.0 | 0.9 | 0.00 | 0.00 | 0.00 | 92 | 1016.1 |
| 20260505080058 | 47 | 0 | 0.0 | 0.9 | 0.00 | 0.00 | 0.00 | 91 | 1016.1 |
| 20260505074559 | 47 | 0 | 0.0 | 1.7 | 0.00 | 0.00 | 0.00 | 91 | 1016.1 |
| 20260505073102 | 47 | 0 | 0.0 | 0.0 | 0.00 | 0.00 | 0.00 | 91 | 1016.2 |
| 20260505071558 | 48 | 0 | 0.0 | 0.0 | 0.00 | 0.00 | 0.00 | 91 | 1016.3 |
| 20260505070104 | 48 | 0 | 0.0 | 0.0 | 0.00 | 0.00 | 0.00 | 91 | 1016.3 |
| 20260505064609 | 48 | 0 | 0.0 | 0.0 | 0.00 | 0.00 | 0.00 | 90 | 1016.3 |
| 20260505063059 | 48 | 0 | 0.0 | 0.0 | 0.00 | 0.00 | 0.00 | 90 | 1016.4 |
| 20260505061559 | 49 | 0 | 0.0 | 0.0 | 0.00 | 0.00 | 0.00 | 89 | 1016.6 |
| 20260505060059 | 49 | 0 | 0.0 | 0.0 | 0.00 | 0.00 | 0.00 | 88 | 1016.6 |
| 20260505054620 | 50 | 263 | 0.0 | 1.7 | 0.00 | 0.00 | 0.00 | 88 | 1016.6 |
| 20260505053101 | 50 | 0 | 0.0 | 0.0 | 0.00 | 0.00 | 0.00 | 88 | 1016.7 |
| 20260505051559 | 51 | 0 | 0.0 | 0.0 | 0.00 | 0.00 | 0.00 | 87 | 1016.7 |
| 20260505041610 | 52 | 0 | 0.0 | 0.0 | 0.00 | 0.00 | 0.00 | 85 | 1016.6 |
| 20260505040104 | 53 | 0 | 0.0 | 0.9 | 0.00 | 0.00 | 0.00 | 84 | 1016.6 |
| 20260505034600 | 53 | 0 | 0.0 | 0.9 | 0.00 | 0.00 | 0.00 | 84 | 1016.6 |
| 20260505033058 | 54 | 0 | 0.0 | 0.9 | 0.00 | 0.00 | 0.00 | 83 | 1016.8 |
| 20260505031604 | 55 | 0 | 0.0 | 1.7 | 0.00 | 0.00 | 0.00 | 82 | 1016.7 |
| 20260505030104 | 55 | 0 | 0.0 | 0.9 | 0.00 | 0.00 | 0.00 | 82 | 1016.7 |
| 20260505024618 | 56 | 0 | 0.0 | 0.9 | 0.00 | 0.00 | 0.00 | 81 | 1016.7 |
| 20260505023109 | 56 | 0 | 0.0 | 1.7 | 0.00 | 0.00 | 0.00 | 79 | 1016.9 |
| 20260505021600 | 57 | 0 | 0.0 | 0.9 | 0.00 | 0.00 | 0.00 | 78 | 1016.4 |
| 20260505020106 | 58 | 0 | 0.0 | 0.9 | 0.00 | 0.00 | 0.00 | 76 | 1016.4 |
| 20260505014558 | 59 | 0 | 0.0 | 0.9 | 0.00 | 0.00 | 0.00 | 74 | 1016.2 |
| 20260505013101 | 60 | 0 | 0.0 | 0.9 | 0.00 | 0.00 | 0.00 | 72 | 1016.3 |
| 20260505011600 | 61 | 261 | 0.0 | 0.9 | 0.00 | 0.00 | 0.00 | 72 | 1016.0 |
| 20260505010113 | 61 | 0 | 0.0 | 1.7 | 0.00 | 0.00 | 0.00 | 70 | 1016.0 |
| 20260505004600 | 62 | 0 | 0.0 | 0.0 | 0.00 | 0.00 | 0.00 | 69 | 1015.6 |
| 20260505003124 | 65 | 0 | 0.0 | 0.9 | 0.00 | 0.00 | 0.00 | 64 | 1015.7 |
| 20260505001558 | 65 | 0 | 0.0 | 0.9 | 0.00 | 0.00 | 0.00 | 63 | 1015.5 |
| 20260504234558 | 71 | 0 | 0.0 | 1.7 | 0.00 | 0.00 | 0.00 | 47 | 1015.4 |
| 20260504233109 | 72 | 0 | 0.0 | 2.6 | 0.00 | 0.00 | 0.00 | 46 | 1015.4 |
| 20260504231600 | 72 | 0 | 0.9 | 3.5 | 0.00 | 0.00 | 0.00 | 43 | 1015.3 |
| 20260504230115 | 73 | 173 | 0.9 | 3.5 | 0.00 | 0.00 | 0.00 | 43 | 1015.2 |
| 20260504224626 | 74 | 0 | 0.9 | 6.1 | 0.00 | 0.00 | 0.00 | 42 | 1015.3 |
| 20260504223110 | 74 | 190 | 1.7 | 6.1 | 0.00 | 0.00 | 0.00 | 41 | 1015.3 |
| 20260504221604 | 74 | 201 | 1.7 | 6.1 | 0.00 | 0.00 | 0.00 | 42 | 1015.4 |
| 20260504220109 | 74 | 153 | 0.9 | 7.0 | 0.00 | 0.00 | 0.00 | 42 | 1015.4 |
| 20260504214601 | 75 | 156 | 1.7 | 7.0 | 0.00 | 0.00 | 0.00 | 41 | 1015.5 |
| 20260504213103 | 75 | 157 | 2.6 | 7.8 | 0.00 | 0.00 | 0.00 | 40 | 1015.5 |
| 20260504211601 | 75 | 158 | 3.5 | 9.6 | 0.00 | 0.00 | 0.00 | 41 | 1015.4 |
| 20260504210104 | 76 | 143 | 2.6 | 7.8 | 0.00 | 0.00 | 0.00 | 40 | 1015.4 |
| 20260504204602 | 76 | 146 | 1.7 | 7.0 | 0.00 | 0.00 | 0.00 | 40 | 1015.4 |
| 20260504203057 | 76 | 160 | 1.7 | 7.0 | 0.00 | 0.00 | 0.00 | 38 | 1015.6 |
| 20260504201607 | 76 | 141 | 0.9 | 8.7 | 0.00 | 0.00 | 0.00 | 39 | 1015.5 |
| 20260504200103 | 77 | 159 | 2.6 | 8.7 | 0.00 | 0.00 | 0.00 | 40 | 1015.6 |
| 20260504194559 | 78 | 143 | 1.7 | 5.2 | 0.00 | 0.00 | 0.00 | 38 | 1015.6 |
| 20260504193055 | 77 | 160 | 1.7 | 6.1 | 0.00 | 0.00 | 0.00 | 38 | 1015.8 |
| 20260504191609 | 77 | 169 | 1.7 | 6.1 | 0.00 | 0.00 | 0.00 | 37 | 1016.0 |
| 20260504190056 | 77 | 188 | 2.6 | 10.4 | 0.00 | 0.00 | 0.00 | 38 | 1016.2 |
| 20260504184557 | 75 | 163 | 2.6 | 7.0 | 0.00 | 0.00 | 0.00 | 36 | 1016.6 |
| 20260504183054 | 75 | 254 | 2.6 | 7.8 | 0.00 | 0.00 | 0.00 | 36 | 1016.7 |
| 20260504181559 | 76 | 163 | 0.9 | 7.8 | 0.00 | 0.00 | 0.00 | 36 | 1016.9 |
| 20260504180057 | 76 | 185 | 0.0 | 9.6 | 0.00 | 0.00 | 0.00 | 39 | 1017.1 |
| 20260504174559 | 74 | 0 | 0.9 | 7.0 | 0.00 | 0.00 | 0.00 | 41 | 1017.2 |
| 20260504173056 | 74 | 194 | 0.0 | 5.2 | 0.00 | 0.00 | 0.00 | 38 | 1017.3 |
| 20260504171556 | 72 | 0 | 1.7 | 4.3 | 0.00 | 0.00 | 0.00 | 38 | 1017.3 |
| 20260504160105 | 69 | 0 | 1.7 | 5.2 | 0.00 | 0.00 | 0.00 | 40 | 1018.4 |